sensor_id;sensor_type;location;lat;lon;timestamp;temperature;humidity
1468;DHT22;727;48.892;9.544;2023-07-02T00:01:45;17.10;99.90
1468;DHT22;727;48.892;9.544;2023-07-02T00:04:12;17.10;99.90
1468;DHT22;727;48.892;9.544;2023-07-02T00:06:43;17.00;99.90
1468;DHT22;727;48.892;9.544;2023-07-02T00:09:10;17.00;99.90
1468;DHT22;727;48.892;9.544;2023-07-02T00:11:37;17.00;99.90
1468;DHT22;727;48.892;9.544;2023-07-02T00:14:05;16.90;99.90
1468;DHT22;727;48.892;9.544;2023-07-02T00:16:31;16.90;99.90
1468;DHT22;727;48.892;9.544;2023-07-02T00:18:58;16.80;99.90
1468;DHT22;727;48.892;9.544;2023-07-02T00:21:25;16.80;99.90
1468;DHT22;727;48.892;9.544;2023-07-02T00:23:54;16.70;99.90
1468;DHT22;727;48.892;9.544;2023-07-02T00:26:23;16.70;99.90
1468;DHT22;727;48.892;9.544;2023-07-02T00:28:50;16.70;99.90
1468;DHT22;727;48.892;9.544;2023-07-02T00:31:17;16.70;99.90
1468;DHT22;727;48.892;9.544;2023-07-02T00:33:44;16.60;99.90
1468;DHT22;727;48.892;9.544;2023-07-02T00:36:10;16.60;99.90
1468;DHT22;727;48.892;9.544;2023-07-02T00:38:41;16.60;99.90
1468;DHT22;727;48.892;9.544;2023-07-02T00:41:09;16.50;99.90
1468;DHT22;727;48.892;9.544;2023-07-02T00:43:36;16.50;99.90
1468;DHT22;727;48.892;9.544;2023-07-02T00:46:05;16.40;99.90
1468;DHT22;727;48.892;9.544;2023-07-02T00:48:32;16.40;99.90
1468;DHT22;727;48.892;9.544;2023-07-02T00:50:59;16.40;99.90
1468;DHT22;727;48.892;9.544;2023-07-02T00:53:26;16.30;99.90
1468;DHT22;727;48.892;9.544;2023-07-02T00:55:53;16.20;99.90
1468;DHT22;727;48.892;9.544;2023-07-02T00:58:21;16.20;99.90
1468;DHT22;727;48.892;9.544;2023-07-02T01:00:48;16.10;99.90
1468;DHT22;727;48.892;9.544;2023-07-02T01:03:15;16.00;99.90
1468;DHT22;727;48.892;9.544;2023-07-02T01:05:41;15.90;99.90
1468;DHT22;727;48.892;9.544;2023-07-02T01:08:08;15.90;99.90
1468;DHT22;727;48.892;9.544;2023-07-02T01:10:36;15.90;99.90
1468;DHT22;727;48.892;9.544;2023-07-02T01:13:07;15.90;99.90
1468;DHT22;727;48.892;9.544;2023-07-02T01:15:37;15.90;99.90
1468;DHT22;727;48.892;9.544;2023-07-02T01:18:04;15.90;99.90
1468;DHT22;727;48.892;9.544;2023-07-02T01:20:33;15.90;99.90
1468;DHT22;727;48.892;9.544;2023-07-02T01:23:01;15.90;99.90
1468;DHT22;727;48.892;9.544;2023-07-02T01:25:29;15.90;99.90
1468;DHT22;727;48.892;9.544;2023-07-02T01:27:55;15.90;99.90
1468;DHT22;727;48.892;9.544;2023-07-02T01:30:24;15.90;99.90
1468;DHT22;727;48.892;9.544;2023-07-02T01:32:50;15.90;99.90
1468;DHT22;727;48.892;9.544;2023-07-02T01:35:17;16.00;99.90
1468;DHT22;727;48.892;9.544;2023-07-02T01:37:45;16.00;99.90
1468;DHT22;727;48.892;9.544;2023-07-02T01:40:12;16.00;99.90
1468;DHT22;727;48.892;9.544;2023-07-02T01:42:39;16.00;99.90
1468;DHT22;727;48.892;9.544;2023-07-02T01:45:07;16.00;99.90
1468;DHT22;727;48.892;9.544;2023-07-02T01:47:34;16.00;99.90
1468;DHT22;727;48.892;9.544;2023-07-02T01:50:03;16.00;99.90
1468;DHT22;727;48.892;9.544;2023-07-02T01:52:30;15.90;99.90
1468;DHT22;727;48.892;9.544;2023-07-02T01:55:00;16.00;99.90
1468;DHT22;727;48.892;9.544;2023-07-02T01:57:27;15.90;99.90
1468;DHT22;727;48.892;9.544;2023-07-02T01:59:55;15.90;99.90
1468;DHT22;727;48.892;9.544;2023-07-02T02:02:22;15.90;99.90
1468;DHT22;727;48.892;9.544;2023-07-02T02:04:49;15.80;99.90
1468;DHT22;727;48.892;9.544;2023-07-02T02:07:15;15.80;99.90
1468;DHT22;727;48.892;9.544;2023-07-02T02:09:42;15.70;99.90
1468;DHT22;727;48.892;9.544;2023-07-02T02:12:10;15.70;99.90
1468;DHT22;727;48.892;9.544;2023-07-02T02:14:38;15.60;99.90
1468;DHT22;727;48.892;9.544;2023-07-02T02:17:05;15.60;99.90
1468;DHT22;727;48.892;9.544;2023-07-02T02:19:32;15.50;99.90
1468;DHT22;727;48.892;9.544;2023-07-02T02:21:59;15.50;99.90
1468;DHT22;727;48.892;9.544;2023-07-02T02:24:25;15.40;99.90
1468;DHT22;727;48.892;9.544;2023-07-02T02:26:52;15.40;99.90
1468;DHT22;727;48.892;9.544;2023-07-02T02:29:20;15.40;99.90
1468;DHT22;727;48.892;9.544;2023-07-02T02:31:47;15.40;99.90
1468;DHT22;727;48.892;9.544;2023-07-02T02:34:13;15.30;99.90
1468;DHT22;727;48.892;9.544;2023-07-02T02:36:40;15.30;99.90
1468;DHT22;727;48.892;9.544;2023-07-02T02:39:07;15.30;99.90
1468;DHT22;727;48.892;9.544;2023-07-02T02:41:34;15.20;99.90
1468;DHT22;727;48.892;9.544;2023-07-02T02:44:00;15.20;99.90
1468;DHT22;727;48.892;9.544;2023-07-02T02:46:28;15.10;99.90
1468;DHT22;727;48.892;9.544;2023-07-02T02:48:55;15.20;99.90
1468;DHT22;727;48.892;9.544;2023-07-02T02:51:22;15.20;99.90
1468;DHT22;727;48.892;9.544;2023-07-02T02:53:49;15.20;99.90
1468;DHT22;727;48.892;9.544;2023-07-02T02:56:15;15.20;99.90
1468;DHT22;727;48.892;9.544;2023-07-02T02:58:43;15.40;99.90
1468;DHT22;727;48.892;9.544;2023-07-02T03:01:10;15.30;99.90
1468;DHT22;727;48.892;9.544;2023-07-02T03:03:40;15.40;99.90
1468;DHT22;727;48.892;9.544;2023-07-02T03:06:11;15.40;99.90
1468;DHT22;727;48.892;9.544;2023-07-02T03:08:39;15.50;99.90
1468;DHT22;727;48.892;9.544;2023-07-02T03:11:06;15.50;99.90
1468;DHT22;727;48.892;9.544;2023-07-02T03:13:32;15.50;99.90
1468;DHT22;727;48.892;9.544;2023-07-02T03:15:59;15.50;99.90
1468;DHT22;727;48.892;9.544;2023-07-02T03:18:26;15.50;99.90
1468;DHT22;727;48.892;9.544;2023-07-02T03:20:54;15.60;99.90
1468;DHT22;727;48.892;9.544;2023-07-02T03:23:21;15.60;99.90
1468;DHT22;727;48.892;9.544;2023-07-02T03:25:47;15.60;99.90
1468;DHT22;727;48.892;9.544;2023-07-02T03:28:14;15.70;99.90
1468;DHT22;727;48.892;9.544;2023-07-02T03:30:41;15.70;99.90
1468;DHT22;727;48.892;9.544;2023-07-02T03:33:08;15.70;99.90
1468;DHT22;727;48.892;9.544;2023-07-02T03:35:35;15.70;99.90
1468;DHT22;727;48.892;9.544;2023-07-02T03:38:04;15.80;99.90
1468;DHT22;727;48.892;9.544;2023-07-02T03:40:31;15.80;99.90
1468;DHT22;727;48.892;9.544;2023-07-02T03:42:58;15.90;99.90
1468;DHT22;727;48.892;9.544;2023-07-02T03:45:24;15.80;99.90
1468;DHT22;727;48.892;9.544;2023-07-02T03:47:51;15.80;99.90
1468;DHT22;727;48.892;9.544;2023-07-02T03:50:18;15.80;99.90
1468;DHT22;727;48.892;9.544;2023-07-02T03:52:45;15.70;99.90
1468;DHT22;727;48.892;9.544;2023-07-02T03:55:13;15.70;99.90
1468;DHT22;727;48.892;9.544;2023-07-02T03:57:40;15.70;99.90
1468;DHT22;727;48.892;9.544;2023-07-02T04:00:07;15.70;99.90
1468;DHT22;727;48.892;9.544;2023-07-02T04:02:36;15.70;99.90
1468;DHT22;727;48.892;9.544;2023-07-02T04:05:04;15.60;99.90
1468;DHT22;727;48.892;9.544;2023-07-02T04:07:31;15.60;99.90
1468;DHT22;727;48.892;9.544;2023-07-02T04:09:58;15.60;99.90
1468;DHT22;727;48.892;9.544;2023-07-02T04:12:26;15.50;99.90
1468;DHT22;727;48.892;9.544;2023-07-02T04:14:53;15.50;99.90
1468;DHT22;727;48.892;9.544;2023-07-02T04:17:19;15.60;99.90
1468;DHT22;727;48.892;9.544;2023-07-02T04:19:46;15.50;99.90
1468;DHT22;727;48.892;9.544;2023-07-02T04:22:13;15.60;99.90
1468;DHT22;727;48.892;9.544;2023-07-02T04:24:40;15.60;99.90
1468;DHT22;727;48.892;9.544;2023-07-02T04:27:06;15.60;99.90
1468;DHT22;727;48.892;9.544;2023-07-02T04:29:34;15.70;99.90
1468;DHT22;727;48.892;9.544;2023-07-02T04:32:01;15.60;99.90
1468;DHT22;727;48.892;9.544;2023-07-02T04:34:28;15.70;99.90
1468;DHT22;727;48.892;9.544;2023-07-02T04:36:55;15.70;99.90
1468;DHT22;727;48.892;9.544;2023-07-02T04:39:22;15.70;99.90
1468;DHT22;727;48.892;9.544;2023-07-02T04:41:49;15.70;99.90
1468;DHT22;727;48.892;9.544;2023-07-02T04:44:18;15.80;99.90
1468;DHT22;727;48.892;9.544;2023-07-02T04:46:47;15.80;99.90
1468;DHT22;727;48.892;9.544;2023-07-02T04:49:14;15.80;99.90
1468;DHT22;727;48.892;9.544;2023-07-02T04:51:41;15.80;99.90
1468;DHT22;727;48.892;9.544;2023-07-02T04:54:07;15.80;99.90
1468;DHT22;727;48.892;9.544;2023-07-02T04:56:35;15.80;99.90
1468;DHT22;727;48.892;9.544;2023-07-02T04:59:02;15.80;99.90
1468;DHT22;727;48.892;9.544;2023-07-02T05:01:29;15.80;99.90
1468;DHT22;727;48.892;9.544;2023-07-02T05:03:57;15.80;99.90
1468;DHT22;727;48.892;9.544;2023-07-02T05:06:23;15.90;99.90
1468;DHT22;727;48.892;9.544;2023-07-02T05:08:50;16.00;99.90
1468;DHT22;727;48.892;9.544;2023-07-02T05:11:19;16.20;99.90
1468;DHT22;727;48.892;9.544;2023-07-02T05:13:46;16.30;99.90
1468;DHT22;727;48.892;9.544;2023-07-02T05:16:13;16.30;99.90
1468;DHT22;727;48.892;9.544;2023-07-02T05:18:41;16.40;99.90
1468;DHT22;727;48.892;9.544;2023-07-02T05:21:09;16.40;99.90
1468;DHT22;727;48.892;9.544;2023-07-02T05:23:36;16.50;99.90
1468;DHT22;727;48.892;9.544;2023-07-02T05:26:03;16.60;99.90
1468;DHT22;727;48.892;9.544;2023-07-02T05:28:30;16.90;99.90
1468;DHT22;727;48.892;9.544;2023-07-02T05:30:56;17.30;99.90
1468;DHT22;727;48.892;9.544;2023-07-02T05:33:23;17.40;99.90
1468;DHT22;727;48.892;9.544;2023-07-02T05:35:50;17.50;99.90
1468;DHT22;727;48.892;9.544;2023-07-02T05:38:19;17.60;99.90
1468;DHT22;727;48.892;9.544;2023-07-02T05:40:45;18.00;99.90
1468;DHT22;727;48.892;9.544;2023-07-02T05:43:12;19.50;99.90
1468;DHT22;727;48.892;9.544;2023-07-02T05:45:39;21.10;99.90
1468;DHT22;727;48.892;9.544;2023-07-02T05:48:06;21.50;99.90
1468;DHT22;727;48.892;9.544;2023-07-02T05:50:33;21.70;99.90
1468;DHT22;727;48.892;9.544;2023-07-02T05:52:59;21.50;99.90
1468;DHT22;727;48.892;9.544;2023-07-02T05:55:27;21.50;99.90
1468;DHT22;727;48.892;9.544;2023-07-02T05:57:54;22.00;99.90
1468;DHT22;727;48.892;9.544;2023-07-02T06:00:22;22.20;98.30
1468;DHT22;727;48.892;9.544;2023-07-02T06:02:49;21.90;98.00
1468;DHT22;727;48.892;9.544;2023-07-02T06:05:16;21.80;98.60
1468;DHT22;727;48.892;9.544;2023-07-02T06:07:43;21.60;98.90
1468;DHT22;727;48.892;9.544;2023-07-02T06:10:09;21.40;99.60
1468;DHT22;727;48.892;9.544;2023-07-02T06:12:38;21.10;99.90
1468;DHT22;727;48.892;9.544;2023-07-02T06:15:05;20.80;99.90
1468;DHT22;727;48.892;9.544;2023-07-02T06:17:32;21.20;99.90
1468;DHT22;727;48.892;9.544;2023-07-02T06:19:59;21.30;99.00
1468;DHT22;727;48.892;9.544;2023-07-02T06:22:26;21.10;98.90
1468;DHT22;727;48.892;9.544;2023-07-02T06:24:52;21.00;99.50
1468;DHT22;727;48.892;9.544;2023-07-02T06:27:19;21.10;99.60
1468;DHT22;727;48.892;9.544;2023-07-02T06:29:47;20.90;99.70
1468;DHT22;727;48.892;9.544;2023-07-02T06:32:14;20.60;99.90
1468;DHT22;727;48.892;9.544;2023-07-02T06:34:41;20.80;99.90
1468;DHT22;727;48.892;9.544;2023-07-02T06:37:07;21.20;99.90
1468;DHT22;727;48.892;9.544;2023-07-02T06:39:34;21.10;98.10
1468;DHT22;727;48.892;9.544;2023-07-02T06:42:01;21.10;98.60
1468;DHT22;727;48.892;9.544;2023-07-02T06:44:30;20.90;97.30
1468;DHT22;727;48.892;9.544;2023-07-02T06:46:58;21.10;98.80
1468;DHT22;727;48.892;9.544;2023-07-02T06:49:26;21.60;97.70
1468;DHT22;727;48.892;9.544;2023-07-02T06:51:52;21.70;95.80
1468;DHT22;727;48.892;9.544;2023-07-02T06:54:19;22.00;95.70
1468;DHT22;727;48.892;9.544;2023-07-02T06:56:46;21.70;94.90
1468;DHT22;727;48.892;9.544;2023-07-02T06:59:18;21.50;95.00
1468;DHT22;727;48.892;9.544;2023-07-02T07:01:45;21.20;95.00
1468;DHT22;727;48.892;9.544;2023-07-02T07:04:13;21.20;96.30
1468;DHT22;727;48.892;9.544;2023-07-02T07:06:40;21.30;96.80
1468;DHT22;727;48.892;9.544;2023-07-02T07:09:07;21.40;95.50
1468;DHT22;727;48.892;9.544;2023-07-02T07:11:34;21.40;95.50
1468;DHT22;727;48.892;9.544;2023-07-02T07:14:00;21.20;95.10
1468;DHT22;727;48.892;9.544;2023-07-02T07:16:27;21.20;94.50
1468;DHT22;727;48.892;9.544;2023-07-02T07:18:54;21.10;95.40
1468;DHT22;727;48.892;9.544;2023-07-02T07:21:22;21.30;95.60
1468;DHT22;727;48.892;9.544;2023-07-02T07:23:48;21.40;95.90
1468;DHT22;727;48.892;9.544;2023-07-02T07:26:15;21.50;94.80
1468;DHT22;727;48.892;9.544;2023-07-02T07:28:42;22.10;93.10
1468;DHT22;727;48.892;9.544;2023-07-02T07:31:08;22.20;91.90
1468;DHT22;727;48.892;9.544;2023-07-02T07:33:36;21.70;91.80
1468;DHT22;727;48.892;9.544;2023-07-02T07:36:02;21.50;92.80
1468;DHT22;727;48.892;9.544;2023-07-02T07:38:30;21.30;92.20
1468;DHT22;727;48.892;9.544;2023-07-02T07:40:57;21.50;92.60
1468;DHT22;727;48.892;9.544;2023-07-02T07:43:24;21.50;92.70
1468;DHT22;727;48.892;9.544;2023-07-02T07:45:51;21.40;91.70
1468;DHT22;727;48.892;9.544;2023-07-02T07:48:17;21.50;92.90
1468;DHT22;727;48.892;9.544;2023-07-02T07:50:44;21.40;92.10
1468;DHT22;727;48.892;9.544;2023-07-02T07:53:11;21.40;93.40
1468;DHT22;727;48.892;9.544;2023-07-02T07:55:39;20.90;91.60
1468;DHT22;727;48.892;9.544;2023-07-02T07:58:06;20.30;92.10
1468;DHT22;727;48.892;9.544;2023-07-02T08:00:32;20.00;93.00
1468;DHT22;727;48.892;9.544;2023-07-02T08:02:59;20.10;92.90
1468;DHT22;727;48.892;9.544;2023-07-02T08:05:26;20.40;92.80
1468;DHT22;727;48.892;9.544;2023-07-02T08:07:53;20.50;92.30
1468;DHT22;727;48.892;9.544;2023-07-02T08:10:20;21.00;92.10
1468;DHT22;727;48.892;9.544;2023-07-02T08:12:48;21.50;91.50
1468;DHT22;727;48.892;9.544;2023-07-02T08:15:15;21.80;91.10
1468;DHT22;727;48.892;9.544;2023-07-02T08:17:42;21.90;90.60
1468;DHT22;727;48.892;9.544;2023-07-02T08:20:09;21.90;90.60
1468;DHT22;727;48.892;9.544;2023-07-02T08:22:37;21.80;90.70
1468;DHT22;727;48.892;9.544;2023-07-02T08:25:04;21.60;90.00
1468;DHT22;727;48.892;9.544;2023-07-02T08:27:32;21.40;90.10
1468;DHT22;727;48.892;9.544;2023-07-02T08:30:00;21.40;90.50
1468;DHT22;727;48.892;9.544;2023-07-02T08:32:26;21.40;90.60
1468;DHT22;727;48.892;9.544;2023-07-02T08:34:53;21.60;90.40
1468;DHT22;727;48.892;9.544;2023-07-02T08:37:21;21.70;89.00
1468;DHT22;727;48.892;9.544;2023-07-02T08:39:48;22.00;88.30
1468;DHT22;727;48.892;9.544;2023-07-02T08:42:15;22.20;86.30
1468;DHT22;727;48.892;9.544;2023-07-02T08:44:45;22.30;84.10
1468;DHT22;727;48.892;9.544;2023-07-02T08:47:14;22.40;84.30
1468;DHT22;727;48.892;9.544;2023-07-02T08:49:42;22.30;83.20
1468;DHT22;727;48.892;9.544;2023-07-02T08:52:08;22.10;84.30
1468;DHT22;727;48.892;9.544;2023-07-02T08:54:35;22.30;85.80
1468;DHT22;727;48.892;9.544;2023-07-02T08:57:04;22.40;83.90
1468;DHT22;727;48.892;9.544;2023-07-02T08:59:31;22.40;84.80
1468;DHT22;727;48.892;9.544;2023-07-02T09:01:58;22.60;82.40
1468;DHT22;727;48.892;9.544;2023-07-02T09:04:26;22.60;83.00
1468;DHT22;727;48.892;9.544;2023-07-02T09:07:03;23.20;82.50
1468;DHT22;727;48.892;9.544;2023-07-02T09:09:31;23.10;80.50
1468;DHT22;727;48.892;9.544;2023-07-02T09:12:00;23.10;81.70
1468;DHT22;727;48.892;9.544;2023-07-02T09:14:29;23.20;81.80
1468;DHT22;727;48.892;9.544;2023-07-02T09:17:04;23.60;79.80
1468;DHT22;727;48.892;9.544;2023-07-02T09:19:35;24.00;77.00
1468;DHT22;727;48.892;9.544;2023-07-02T09:22:02;24.20;75.80
1468;DHT22;727;48.892;9.544;2023-07-02T09:24:30;24.30;75.10
1468;DHT22;727;48.892;9.544;2023-07-02T09:26:59;24.10;75.40
1468;DHT22;727;48.892;9.544;2023-07-02T09:29:27;23.90;73.10
1468;DHT22;727;48.892;9.544;2023-07-02T09:31:55;24.00;73.70
1468;DHT22;727;48.892;9.544;2023-07-02T09:34:27;24.20;72.20
1468;DHT22;727;48.892;9.544;2023-07-02T09:36:56;24.10;72.30
1468;DHT22;727;48.892;9.544;2023-07-02T09:39:27;24.30;71.60
1468;DHT22;727;48.892;9.544;2023-07-02T09:41:55;24.80;70.70
1468;DHT22;727;48.892;9.544;2023-07-02T09:44:22;25.00;68.10
1468;DHT22;727;48.892;9.544;2023-07-02T09:46:58;24.90;69.90
1468;DHT22;727;48.892;9.544;2023-07-02T09:49:26;24.70;67.40
1468;DHT22;727;48.892;9.544;2023-07-02T09:51:59;25.00;70.10
1468;DHT22;727;48.892;9.544;2023-07-02T09:54:26;25.60;66.80
1468;DHT22;727;48.892;9.544;2023-07-02T09:56:53;26.00;65.40
1468;DHT22;727;48.892;9.544;2023-07-02T09:59:20;25.90;64.70
1468;DHT22;727;48.892;9.544;2023-07-02T10:01:47;26.00;63.10
1468;DHT22;727;48.892;9.544;2023-07-02T10:04:14;26.00;61.80
1468;DHT22;727;48.892;9.544;2023-07-02T10:06:49;25.80;63.20
1468;DHT22;727;48.892;9.544;2023-07-02T10:09:20;25.30;64.60
1468;DHT22;727;48.892;9.544;2023-07-02T10:11:47;25.10;65.10
1468;DHT22;727;48.892;9.544;2023-07-02T10:14:14;25.00;63.70
1468;DHT22;727;48.892;9.544;2023-07-02T10:16:52;25.30;64.50
1468;DHT22;727;48.892;9.544;2023-07-02T10:19:20;25.80;65.70
1468;DHT22;727;48.892;9.544;2023-07-02T10:21:59;26.00;61.10
1468;DHT22;727;48.892;9.544;2023-07-02T10:24:28;25.80;62.30
1468;DHT22;727;48.892;9.544;2023-07-02T10:26:56;25.90;61.70
1468;DHT22;727;48.892;9.544;2023-07-02T10:29:24;26.10;62.10
1468;DHT22;727;48.892;9.544;2023-07-02T10:31:53;26.00;61.70
1468;DHT22;727;48.892;9.544;2023-07-02T10:34:30;26.20;62.30
1468;DHT22;727;48.892;9.544;2023-07-02T10:37:00;26.50;60.50
1468;DHT22;727;48.892;9.544;2023-07-02T10:39:30;26.80;59.30
1468;DHT22;727;48.892;9.544;2023-07-02T10:42:05;26.60;58.50
1468;DHT22;727;48.892;9.544;2023-07-02T10:44:32;26.60;58.70
1468;DHT22;727;48.892;9.544;2023-07-02T10:47:00;26.30;59.80
1468;DHT22;727;48.892;9.544;2023-07-02T10:49:31;26.70;59.20
1468;DHT22;727;48.892;9.544;2023-07-02T10:51:59;26.80;58.50
1468;DHT22;727;48.892;9.544;2023-07-02T10:54:40;26.60;59.00
1468;DHT22;727;48.892;9.544;2023-07-02T10:57:08;26.60;60.00
1468;DHT22;727;48.892;9.544;2023-07-02T10:59:34;26.70;58.20
1468;DHT22;727;48.892;9.544;2023-07-02T11:02:01;26.50;60.00
1468;DHT22;727;48.892;9.544;2023-07-02T11:04:29;26.80;59.40
1468;DHT22;727;48.892;9.544;2023-07-02T11:06:57;27.10;58.00
1468;DHT22;727;48.892;9.544;2023-07-02T11:09:25;27.20;58.60
1468;DHT22;727;48.892;9.544;2023-07-02T11:11:54;27.10;58.50
1468;DHT22;727;48.892;9.544;2023-07-02T11:14:31;27.30;57.80
1468;DHT22;727;48.892;9.544;2023-07-02T11:16:59;27.20;58.70
1468;DHT22;727;48.892;9.544;2023-07-02T11:19:28;27.00;57.40
1468;DHT22;727;48.892;9.544;2023-07-02T11:21:57;26.40;58.30
1468;DHT22;727;48.892;9.544;2023-07-02T11:24:30;26.00;59.80
1468;DHT22;727;48.892;9.544;2023-07-02T11:26:59;25.90;60.00
1468;DHT22;727;48.892;9.544;2023-07-02T11:29:27;26.10;60.10
1468;DHT22;727;48.892;9.544;2023-07-02T11:31:54;26.40;59.80
1468;DHT22;727;48.892;9.544;2023-07-02T11:34:22;26.40;58.90
1468;DHT22;727;48.892;9.544;2023-07-02T11:36:50;26.10;58.90
1468;DHT22;727;48.892;9.544;2023-07-02T11:39:19;26.10;59.30
1468;DHT22;727;48.892;9.544;2023-07-02T11:41:48;26.10;59.20
1468;DHT22;727;48.892;9.544;2023-07-02T11:44:17;26.60;59.70
1468;DHT22;727;48.892;9.544;2023-07-02T11:46:44;27.00;58.40
1468;DHT22;727;48.892;9.544;2023-07-02T11:49:12;27.30;56.90
1468;DHT22;727;48.892;9.544;2023-07-02T11:51:40;27.30;57.20
1468;DHT22;727;48.892;9.544;2023-07-02T11:54:07;27.50;56.50
1468;DHT22;727;48.892;9.544;2023-07-02T11:56:34;27.80;55.40
1468;DHT22;727;48.892;9.544;2023-07-02T11:59:01;27.80;55.20
1468;DHT22;727;48.892;9.544;2023-07-02T12:01:29;27.70;56.30
1468;DHT22;727;48.892;9.544;2023-07-02T12:03:56;27.10;56.40
1468;DHT22;727;48.892;9.544;2023-07-02T12:06:23;26.80;57.50
1468;DHT22;727;48.892;9.544;2023-07-02T12:08:50;27.10;57.60
1468;DHT22;727;48.892;9.544;2023-07-02T12:11:16;27.30;56.70
1468;DHT22;727;48.892;9.544;2023-07-02T12:13:43;27.50;56.70
1468;DHT22;727;48.892;9.544;2023-07-02T12:16:10;27.50;56.70
1468;DHT22;727;48.892;9.544;2023-07-02T12:18:38;27.30;57.10
1468;DHT22;727;48.892;9.544;2023-07-02T12:21:05;27.20;56.30
1468;DHT22;727;48.892;9.544;2023-07-02T12:23:32;27.10;56.60
1468;DHT22;727;48.892;9.544;2023-07-02T12:25:58;27.00;57.20
1468;DHT22;727;48.892;9.544;2023-07-02T12:28:25;27.20;56.70
1468;DHT22;727;48.892;9.544;2023-07-02T12:30:55;27.30;56.30
1468;DHT22;727;48.892;9.544;2023-07-02T12:33:24;27.40;56.00
1468;DHT22;727;48.892;9.544;2023-07-02T12:35:52;27.60;55.50
1468;DHT22;727;48.892;9.544;2023-07-02T12:38:19;27.60;53.70
1468;DHT22;727;48.892;9.544;2023-07-02T12:40:49;27.60;54.00
1468;DHT22;727;48.892;9.544;2023-07-02T12:43:15;27.40;54.10
1468;DHT22;727;48.892;9.544;2023-07-02T12:45:42;27.60;54.60
1468;DHT22;727;48.892;9.544;2023-07-02T12:48:09;27.60;54.70
1468;DHT22;727;48.892;9.544;2023-07-02T12:50:37;27.40;54.90
1468;DHT22;727;48.892;9.544;2023-07-02T12:53:05;27.20;55.50
1468;DHT22;727;48.892;9.544;2023-07-02T12:55:32;27.00;55.80
1468;DHT22;727;48.892;9.544;2023-07-02T12:58:01;26.80;56.30
1468;DHT22;727;48.892;9.544;2023-07-02T13:00:28;26.80;56.90
1468;DHT22;727;48.892;9.544;2023-07-02T13:02:54;26.30;56.70
1468;DHT22;727;48.892;9.544;2023-07-02T13:05:21;26.20;57.30
1468;DHT22;727;48.892;9.544;2023-07-02T13:07:48;26.20;57.40
1468;DHT22;727;48.892;9.544;2023-07-02T13:10:16;26.70;55.60
1468;DHT22;727;48.892;9.544;2023-07-02T13:12:43;26.90;55.50
1468;DHT22;727;48.892;9.544;2023-07-02T13:15:10;26.80;54.30
1468;DHT22;727;48.892;9.544;2023-07-02T13:17:37;26.90;55.00
1468;DHT22;727;48.892;9.544;2023-07-02T13:20:05;27.20;53.30
1468;DHT22;727;48.892;9.544;2023-07-02T13:22:32;27.30;52.90
1468;DHT22;727;48.892;9.544;2023-07-02T13:24:59;27.20;53.00
1468;DHT22;727;48.892;9.544;2023-07-02T13:27:27;27.20;53.40
1468;DHT22;727;48.892;9.544;2023-07-02T13:29:53;27.20;53.70
1468;DHT22;727;48.892;9.544;2023-07-02T13:32:20;27.30;53.80
1468;DHT22;727;48.892;9.544;2023-07-02T13:34:47;27.40;53.20
1468;DHT22;727;48.892;9.544;2023-07-02T13:37:13;27.40;52.10
1468;DHT22;727;48.892;9.544;2023-07-02T13:39:43;27.30;53.60
1468;DHT22;727;48.892;9.544;2023-07-02T13:42:10;27.70;52.70
1468;DHT22;727;48.892;9.544;2023-07-02T13:44:38;27.50;52.80
1468;DHT22;727;48.892;9.544;2023-07-02T13:47:06;27.40;51.90
1468;DHT22;727;48.892;9.544;2023-07-02T13:49:35;27.10;52.10
1468;DHT22;727;48.892;9.544;2023-07-02T13:52:02;27.20;51.50
1468;DHT22;727;48.892;9.544;2023-07-02T13:54:35;27.30;50.90
1468;DHT22;727;48.892;9.544;2023-07-02T13:57:03;27.20;51.20
1468;DHT22;727;48.892;9.544;2023-07-02T13:59:31;27.30;51.70
1468;DHT22;727;48.892;9.544;2023-07-02T14:01:58;27.50;51.80
1468;DHT22;727;48.892;9.544;2023-07-02T14:04:25;27.90;51.60
1468;DHT22;727;48.892;9.544;2023-07-02T14:06:51;28.10;50.60
1468;DHT22;727;48.892;9.544;2023-07-02T14:09:19;28.00;49.60
1468;DHT22;727;48.892;9.544;2023-07-02T14:11:46;27.90;49.90
1468;DHT22;727;48.892;9.544;2023-07-02T14:14:12;28.00;50.20
1468;DHT22;727;48.892;9.544;2023-07-02T14:16:40;27.90;49.90
1468;DHT22;727;48.892;9.544;2023-07-02T14:19:07;27.70;50.10
1468;DHT22;727;48.892;9.544;2023-07-02T14:21:37;27.80;50.90
1468;DHT22;727;48.892;9.544;2023-07-02T14:24:04;28.00;49.10
1468;DHT22;727;48.892;9.544;2023-07-02T14:26:31;28.30;49.40
1468;DHT22;727;48.892;9.544;2023-07-02T14:28:58;28.30;48.60
1468;DHT22;727;48.892;9.544;2023-07-02T14:31:24;28.20;49.00
1468;DHT22;727;48.892;9.544;2023-07-02T14:33:53;28.00;49.30
1468;DHT22;727;48.892;9.544;2023-07-02T14:36:19;27.80;49.00
1468;DHT22;727;48.892;9.544;2023-07-02T14:38:46;27.90;49.10
1468;DHT22;727;48.892;9.544;2023-07-02T14:41:13;27.90;48.70
1468;DHT22;727;48.892;9.544;2023-07-02T14:43:39;27.60;48.70
1468;DHT22;727;48.892;9.544;2023-07-02T14:46:06;27.70;49.40
1468;DHT22;727;48.892;9.544;2023-07-02T14:48:33;27.30;49.10
1468;DHT22;727;48.892;9.544;2023-07-02T14:51:02;27.40;50.00
1468;DHT22;727;48.892;9.544;2023-07-02T14:53:30;27.50;49.20
1468;DHT22;727;48.892;9.544;2023-07-02T14:55:58;27.70;49.90
1468;DHT22;727;48.892;9.544;2023-07-02T14:58:26;27.90;49.00
1468;DHT22;727;48.892;9.544;2023-07-02T15:00:55;27.80;49.70
1468;DHT22;727;48.892;9.544;2023-07-02T15:03:23;27.70;49.10
1468;DHT22;727;48.892;9.544;2023-07-02T15:05:51;27.60;48.60
1468;DHT22;727;48.892;9.544;2023-07-02T15:08:20;27.40;48.90
1468;DHT22;727;48.892;9.544;2023-07-02T15:10:48;27.20;50.10
1468;DHT22;727;48.892;9.544;2023-07-02T15:13:15;27.20;49.70
1468;DHT22;727;48.892;9.544;2023-07-02T15:15:44;27.50;50.20
1468;DHT22;727;48.892;9.544;2023-07-02T15:18:19;27.60;49.00
1468;DHT22;727;48.892;9.544;2023-07-02T15:20:49;27.40;48.40
1468;DHT22;727;48.892;9.544;2023-07-02T15:23:16;27.10;50.20
1468;DHT22;727;48.892;9.544;2023-07-02T15:25:50;27.00;49.70
1468;DHT22;727;48.892;9.544;2023-07-02T15:28:17;27.10;49.60
1468;DHT22;727;48.892;9.544;2023-07-02T15:30:43;27.20;49.70
1468;DHT22;727;48.892;9.544;2023-07-02T15:33:10;27.30;49.30
1468;DHT22;727;48.892;9.544;2023-07-02T15:35:37;27.30;49.20
1468;DHT22;727;48.892;9.544;2023-07-02T15:38:03;27.20;49.60
1468;DHT22;727;48.892;9.544;2023-07-02T15:40:31;27.10;49.40
1468;DHT22;727;48.892;9.544;2023-07-02T15:43:01;27.00;49.50
1468;DHT22;727;48.892;9.544;2023-07-02T15:45:28;26.90;49.50
1468;DHT22;727;48.892;9.544;2023-07-02T15:47:55;26.90;49.90
1468;DHT22;727;48.892;9.544;2023-07-02T15:50:23;26.90;49.60
1468;DHT22;727;48.892;9.544;2023-07-02T15:52:49;27.10;49.10
1468;DHT22;727;48.892;9.544;2023-07-02T15:55:17;26.80;49.50
1468;DHT22;727;48.892;9.544;2023-07-02T15:57:44;26.80;50.80
1468;DHT22;727;48.892;9.544;2023-07-02T16:00:14;27.00;50.30
1468;DHT22;727;48.892;9.544;2023-07-02T16:02:41;27.00;50.10
1468;DHT22;727;48.892;9.544;2023-07-02T16:05:08;27.00;50.70
1468;DHT22;727;48.892;9.544;2023-07-02T16:07:35;26.80;50.40
1468;DHT22;727;48.892;9.544;2023-07-02T16:10:02;26.90;50.70
1468;DHT22;727;48.892;9.544;2023-07-02T16:12:29;26.90;51.80
1468;DHT22;727;48.892;9.544;2023-07-02T16:14:57;27.00;50.20
1468;DHT22;727;48.892;9.544;2023-07-02T16:17:25;27.00;50.50
1468;DHT22;727;48.892;9.544;2023-07-02T16:19:52;27.00;50.10